Terminal Aerodrome Forecast
Issued by NWS

Home | Current Version | Previous Version | Text Only | Print | Product List | Glossary On
Versions: 1 2 3 4 5 6 7 8 9 10 11 12 13
000
FTUS44 KTSA 060500
TAFFYV
TAF
KFYV 060520Z 0606/0706 13008KT P6SM BKN250
     FM060900 16007KT P6SM VCTS BKN050CB
      TEMPO 0609/0613 6SM -TSRA BKN050CB
     FM061300 16010KT 5SM -TSRA OVC035CB
     FM061800 16012G20KT P6SM VCTS OVC035CB
     FM070000 16010KT P6SM OVC050=

USA.gov is the U.S. government's official web portal to all federal, state and local government web resources and services.